GIA289 WIDN-WIII
Flight info
| Callsign | GIA289 |
|---|---|
| Flight time | N/A |
| Altitude | 37000 |
| Route | KIRDA W26 PKP B470 BUNIK |
| Aircraft | B738/M-SDE2E3FGHIRWXY/LB1 |
Departure
| Time | 2026-04-29 11:30 |
|---|---|
| Airport | Raja Haji Fisabilillah International Airport (WIDN) |
Arrival
| Time | N/A |
|---|---|
| Airport | Soekarno-Hatta International Airport (WIII) |
| Time | Latitude | Longitude | Altitude | Speed | Heading |
|---|---|---|---|---|---|
| 2026-04-29 11:10 | 0.92155 | 104.52789 | 33 ft | 0 kts | 313° |
| 2026-04-29 11:23 | 0.92145 | 104.52800 | 33 ft | 4 kts | 314° |
| 2026-04-29 11:24 | 0.92126 | 104.52817 | 33 ft | 4 kts | 324° |
| 2026-04-29 11:24 | 0.92103 | 104.52827 | 33 ft | 4 kts | 1° |
| 2026-04-29 11:24 | 0.92078 | 104.52823 | 31 ft | 4 kts | 358° |
| 2026-04-29 11:24 | 0.92070 | 104.52824 | 31 ft | 1 kts | 314° |
| 2026-04-29 11:27 | 0.92074 | 104.52814 | 31 ft | 4 kts | 288° |
| 2026-04-29 11:27 | 0.92044 | 104.52781 | 33 ft | 11 kts | 185° |
| 2026-04-29 11:27 | 0.91941 | 104.52785 | 33 ft | 19 kts | 181° |
| 2026-04-29 11:27 | 0.91833 | 104.52753 | 33 ft | 20 kts | 197° |
| 2026-04-29 11:28 | 0.91704 | 104.52703 | 34 ft | 20 kts | 208° |
| 2026-04-29 11:28 | 0.91657 | 104.52672 | 34 ft | 8 kts | 247° |
| 2026-04-29 11:28 | 0.91672 | 104.52652 | 34 ft | 3 kts | 6° |
| 2026-04-29 11:28 | 0.91691 | 104.52681 | 33 ft | 8 kts | 53° |
| 2026-04-29 11:29 | 0.91717 | 104.52708 | 34 ft | 2 kts | 43° |
| 2026-04-29 11:29 | 0.91732 | 104.52722 | 34 ft | 4 kts | 43° |
| 2026-04-29 11:29 | 0.91854 | 104.52836 | 32 ft | 67 kts | 42° |
| 2026-04-29 11:29 | 0.92416 | 104.53355 | 39 ft | 149 kts | 42° |
| 2026-04-29 11:30 | 0.93230 | 104.54103 | 741 ft | 162 kts | 41° |
| 2026-04-29 11:30 | 0.94052 | 104.54841 | 1791 ft | 158 kts | 42° |
| 2026-04-29 11:30 | 0.94908 | 104.55616 | 2498 ft | 176 kts | 43° |
| 2026-04-29 11:30 | 0.95878 | 104.56505 | 3027 ft | 201 kts | 43° |
| 2026-04-29 11:31 | 0.96844 | 104.57411 | 4328 ft | 168 kts | 44° |
| 2026-04-29 11:31 | 0.97599 | 104.58142 | 5654 ft | 142 kts | 46° |
| 2026-04-29 11:31 | 0.98437 | 104.59014 | 5438 ft | 214 kts | 48° |
| 2026-04-29 11:31 | 0.99128 | 104.60445 | 5533 ft | 251 kts | 84° |
| 2026-04-29 11:32 | 0.98757 | 104.62222 | 5998 ft | 274 kts | 121° |
| 2026-04-29 11:32 | 0.97356 | 104.63514 | 6822 ft | 282 kts | 154° |
| 2026-04-29 11:32 | 0.95452 | 104.64022 | 7722 ft | 285 kts | 164° |
| 2026-04-29 11:32 | 0.93551 | 104.64643 | 8591 ft | 289 kts | 158° |
| 2026-04-29 11:33 | 0.91686 | 104.65378 | 9457 ft | 294 kts | 156° |
| 2026-04-29 11:33 | 0.89752 | 104.66156 | 10294 ft | 299 kts | 156° |
| 2026-04-29 11:33 | 0.87753 | 104.66951 | 10627 ft | 323 kts | 157° |
| 2026-04-29 11:33 | 0.85605 | 104.67789 | 10809 ft | 348 kts | 158° |
| 2026-04-29 11:34 | 0.84836 | 104.68086 | 10857 ft | 356 kts | 158° |
| 2026-04-29 11:34 | 0.80822 | 104.69607 | 11437 ft | 380 kts | 158° |
| 2026-04-29 11:34 | 0.78326 | 104.70537 | 12084 ft | 384 kts | 158° |
| 2026-04-29 11:34 | 0.75800 | 104.71473 | 12776 ft | 387 kts | 159° |
| 2026-04-29 11:35 | 0.73266 | 104.72408 | 13440 ft | 390 kts | 159° |
| 2026-04-29 11:35 | 0.70739 | 104.73340 | 13992 ft | 394 kts | 159° |
| 2026-04-29 11:35 | 0.68150 | 104.74294 | 14563 ft | 397 kts | 159° |
| 2026-04-29 11:35 | 0.65544 | 104.75254 | 15122 ft | 399 kts | 159° |
| 2026-04-29 11:36 | 0.62928 | 104.76218 | 15675 ft | 402 kts | 159° |
| 2026-04-29 11:36 | 0.60278 | 104.77194 | 16197 ft | 406 kts | 158° |
| 2026-04-29 11:36 | 0.57618 | 104.78175 | 16723 ft | 409 kts | 158° |
| 2026-04-29 11:36 | 0.54974 | 104.79149 | 17235 ft | 412 kts | 158° |
| 2026-04-29 11:37 | 0.52274 | 104.80144 | 17746 ft | 415 kts | 158° |
| 2026-04-29 11:37 | 0.49542 | 104.81151 | 18219 ft | 418 kts | 158° |
| 2026-04-29 11:37 | 0.47731 | 104.81819 | 18490 ft | 420 kts | 158° |